Time;durP1;ratioP1;P1;durP2;ratioP2;P2;SDS_P1;SDS_P2;PMS_P1;PMS_P2;Temp;Humidity;BMP_temperature;BMP_pressure;BME280_temperature;BME280_humidity;BME280_pressure;Samples;Min_cycle;Max_cycle;Signal;HPM_P1;HPM_P2
2022/12/01 00:01:38;;;;;;;21.70;11.60;;;;;;;0.75;90.20;102328.78;107702;1267;60110;-72
2022/12/01 00:04:07;;;;;;;26.00;14.40;;;;;;;0.65;88.74;102330.05;107642;1270;71806;-74
2022/12/01 00:06:36;;;;;;;21.50;12.20;;;;;;;0.67;88.86;102330.02;107605;1257;70711;-74
2022/12/01 00:11:52;;;;;;;24.00;12.90;;;;;;;0.60;91.15;102338.81;107590;1270;73311;-72
2022/12/01 00:14:20;;;;;;;20.00;12.40;;;;;;;0.67;89.84;102343.75;107584;1270;61781;-74
2022/12/01 00:16:49;;;;;;;23.70;12.70;;;;;;;0.61;88.81;102343.61;107601;1266;60068;-74
2022/12/01 00:19:18;;;;;;;22.30;11.70;;;;;;;0.60;87.78;102340.01;107615;1261;73910;-74
2022/12/01 00:21:46;;;;;;;20.70;12.10;;;;;;;0.54;88.12;102341.08;107834;1262;72409;-73
2022/12/01 00:24:15;;;;;;;21.20;11.70;;;;;;;0.48;86.77;102342.13;107727;1270;68217;-74
2022/12/01 00:26:44;;;;;;;22.20;12.80;;;;;;;0.47;88.99;102343.85;107721;1260;73736;-73
2022/12/01 00:29:12;;;;;;;24.20;13.60;;;;;;;0.63;90.69;102341.20;107699;1260;61881;-71
2022/12/01 00:31:41;;;;;;;18.20;12.00;;;;;;;0.67;88.84;102338.94;107731;1266;58689;-72
2022/12/01 00:34:23;;;;;;;24.20;13.70;;;;;;;0.62;88.81;102339.66;107664;1264;70945;-72
2022/12/01 00:36:52;;;;;;;20.70;11.90;;;;;;;0.62;88.39;102337.78;107826;1258;71435;-73
2022/12/01 00:39:21;;;;;;;22.90;12.70;;;;;;;0.57;88.68;102335.23;107738;1265;68009;-75
2022/12/01 00:41:49;;;;;;;20.80;12.20;;;;;;;0.61;90.09;102329.72;107695;1261;73808;-75
2022/12/01 00:44:18;;;;;;;24.30;13.20;;;;;;;0.57;88.19;102320.83;107768;1268;59287;-78
2022/12/01 00:46:47;;;;;;;21.50;12.70;;;;;;;0.59;90.95;102326.98;107764;1257;61159;-76
2022/12/01 00:49:15;;;;;;;23.80;13.30;;;;;;;0.64;91.39;102325.41;107748;1270;71532;-76
2022/12/01 00:51:44;;;;;;;22.10;12.70;;;;;;;0.60;87.73;102326.80;107877;1262;70085;-76
2022/12/01 00:54:13;;;;;;;25.20;14.70;;;;;;;0.72;93.27;102326.23;107713;1267;59074;-75
2022/12/01 00:56:42;;;;;;;25.40;14.50;;;;;;;0.83;92.43;102316.04;107577;1256;73979;-74
2022/12/01 00:59:10;;;;;;;22.40;13.30;;;;;;;0.71;87.40;102314.41;107718;1260;61122;-77
2022/12/01 01:01:39;;;;;;;23.70;13.60;;;;;;;0.55;88.69;102311.91;107764;1260;59542;-76
2022/12/01 01:04:08;;;;;;;22.90;12.90;;;;;;;0.49;88.17;102312.45;107810;1261;71299;-77
2022/12/01 01:06:37;;;;;;;25.70;14.50;;;;;;;0.40;88.70;102318.00;107877;1265;69523;-74
2022/12/01 01:09:05;;;;;;;22.90;14.10;;;;;;;0.33;88.33;102309.28;107729;1260;70364;-75
2022/12/01 01:11:34;;;;;;;22.40;13.60;;;;;;;0.30;88.10;102310.67;107726;1267;72335;-75
2022/12/01 01:14:04;;;;;;;22.20;13.40;;;;;;;0.25;89.99;102303.15;107644;1263;61154;-76
2022/12/01 01:16:33;;;;;;;27.60;12.10;;;;;;;0.28;90.79;102299.19;107672;1258;59305;-75
2022/12/01 01:19:02;;;;;;;21.90;12.40;;;;;;;0.32;91.16;102303.63;107661;1263;73933;-76
2022/12/01 01:21:31;;;;;;;23.30;14.10;;;;;;;0.34;89.18;102305.52;107694;1258;70167;-76
2022/12/01 01:24:00;;;;;;;22.60;12.80;;;;;;;0.32;89.34;102313.06;107755;1266;66931;-76
2022/12/01 01:26:30;;;;;;;24.20;14.50;;;;;;;0.28;90.86;102314.78;107656;1267;73050;-76
2022/12/01 01:29:02;;;;;;;26.90;14.60;;;;;;;0.34;90.80;102314.77;107665;1264;59835;-77
2022/12/01 01:31:31;;;;;;;22.60;14.40;;;;;;;0.32;90.54;102312.20;107643;1263;58635;-75
2022/12/01 01:34:00;;;;;;;26.90;14.20;;;;;;;0.26;90.12;102306.75;107648;1260;71514;-73
2022/12/01 01:36:29;;;;;;;23.90;13.20;;;;;;;0.25;91.94;102306.23;107656;1254;70259;-74
2022/12/01 01:38:59;;;;;;;26.30;15.20;;;;;;;0.31;92.63;102307.24;107633;1270;68106;-76
2022/12/01 01:41:28;;;;;;;23.70;13.80;;;;;;;0.20;89.92;102308.31;107837;1262;72409;-75
2022/12/01 01:44:02;;;;;;;22.90;13.30;;;;;;;0.23;90.76;102308.98;107552;1266;60521;-74
2022/12/01 01:46:33;;;;;;;25.90;13.50;;;;;;;0.17;91.86;102305.25;107633;1270;60542;-73
2022/12/01 01:49:10;;;;;;;24.60;15.20;;;;;;;0.18;91.71;102306.27;107634;1263;72354;-73
2022/12/01 01:51:49;;;;;;;23.20;14.10;;;;;;;0.29;94.00;102311.36;107690;1267;73022;-74
2022/12/01 01:54:25;;;;;;;26.40;15.00;;;;;;;0.31;92.88;102310.15;107508;1267;70174;-76
2022/12/01 01:56:56;;;;;;;25.60;14.40;;;;;;;0.48;93.71;102310.74;107691;1266;73366;-75
2022/12/01 01:59:36;;;;;;;26.50;13.90;;;;;;;0.34;91.14;102313.39;107640;1264;58852;-75
2022/12/01 02:02:07;;;;;;;23.80;14.60;;;;;;;0.36;92.55;102317.16;107645;1257;60593;-74
2022/12/01 02:04:46;;;;;;;26.50;14.90;;;;;;;0.31;91.67;102312.21;107557;1262;73817;-73
2022/12/01 02:07:18;;;;;;;25.80;14.40;;;;;;;0.44;96.02;102305.11;107785;1270;72238;-75
2022/12/01 02:09:47;;;;;;;23.70;14.30;;;;;;;0.49;92.89;102303.54;107596;1259;70860;-76
2022/12/01 02:12:55;;;;;;;23.00;13.80;;;;;;;0.31;90.55;102294.89;107598;1264;73614;-76
2022/12/01 02:15:45;;;;;;;24.50;14.40;;;;;;;0.26;91.04;102290.11;107734;1261;59962;-77
2022/12/01 02:18:25;;;;;;;25.60;14.40;;;;;;;0.07;92.27;102300.13;107663;1274;59465;-77
2022/12/01 02:21:32;;;;;;;26.40;13.50;;;;;;;0.19;95.60;102299.57;107751;1267;71556;-73
2022/12/01 02:25:13;;;;;;;24.40;13.00;;;;;;;0.22;92.03;102306.76;107862;1258;70336;-76
2022/12/01 02:28:05;;;;;;;25.60;13.20;;;;;;;0.25;92.20;102299.38;107308;1267;68482;-76
2022/12/01 02:31:12;;;;;;;25.30;14.30;;;;;;;0.23;92.94;102293.22;107655;1261;73172;-75
2022/12/01 02:33:57;;;;;;;24.50;13.60;;;;;;;0.28;91.90;102291.98;107701;1261;61107;-75
2022/12/01 02:36:51;;;;;;;23.50;13.60;;;;;;;0.28;91.78;102292.33;107657;1267;58653;-76
2022/12/01 02:39:33;;;;;;;22.90;12.80;;;;;;;0.27;92.88;102295.60;107748;1263;73437;-74
2022/12/01 02:42:48;;;;;;;22.90;13.40;;;;;;;0.18;91.57;102294.95;107791;1257;60984;-74
2022/12/01 02:45:12;;;;;;;26.60;14.70;;;;;;;0.17;92.49;102297.52;107730;1270;67718;-75
2022/12/01 02:47:43;;;;;;;32.50;15.30;;;;;;;0.24;93.77;102306.41;107674;1265;71865;-74
2022/12/01 02:50:12;;;;;;;28.80;14.80;;;;;;;0.40;96.17;102311.48;107582;1273;59654;-74
2022/12/01 02:52:41;;;;;;;23.20;14.30;;;;;;;0.39;94.22;102298.13;107694;1263;58801;-72
2022/12/01 02:55:12;;;;;;;23.50;13.30;;;;;;;0.36;90.71;102283.39;107581;1266;71587;-74
2022/12/01 02:57:41;;;;;;;30.90;14.80;;;;;;;0.24;91.28;102276.92;107502;1266;72858;-75
2022/12/01 03:00:12;;;;;;;25.20;14.00;;;;;;;0.16;91.53;102285.02;107737;1260;69300;-75
2022/12/01 03:03:05;;;;;;;23.50;14.00;;;;;;;0.24;93.87;102284.98;107560;1273;73027;-73
2022/12/01 03:05:53;;;;;;;25.10;14.30;;;;;;;0.30;94.76;102284.10;107677;1270;61343;-75
2022/12/01 03:08:48;;;;;;;28.60;15.00;;;;;;;0.20;91.63;102285.52;107622;1263;59466;-75
2022/12/01 03:11:26;;;;;;;25.00;13.70;;;;;;;0.19;93.00;102287.23;107621;1267;73557;-74
2022/12/01 03:14:27;;;;;;;27.20;14.60;;;;;;;0.26;93.52;102286.00;107760;1268;72404;-76
2022/12/01 03:17:03;;;;;;;25.30;15.00;;;;;;;0.10;93.41;102291.39;107584;1267;70241;-74
2022/12/01 03:19:44;;;;;;;24.80;13.90;;;;;;;0.15;93.68;102290.33;107645;1270;72254;-75
2022/12/01 03:22:30;;;;;;;25.60;13.40;;;;;;;0.16;92.93;102284.52;107631;1270;61175;-75
2022/12/01 03:25:02;;;;;;;25.20;14.40;;;;;;;0.25;93.70;102282.92;107666;1261;57612;-74
2022/12/01 03:27:36;;;;;;;28.20;15.30;;;;;;;0.28;91.42;102280.84;107746;1267;71648;-74
2022/12/01 03:30:09;;;;;;;28.70;14.80;;;;;;;0.33;94.88;102285.30;107695;1258;69568;-78
2022/12/01 03:33:03;;;;;;;29.10;15.60;;;;;;;0.48;96.31;102291.21;107697;1263;68152;-75
2022/12/01 03:35:40;;;;;;;25.10;14.40;;;;;;;0.59;95.25;102290.81;107667;1258;72879;-75
2022/12/01 03:38:20;;;;;;;28.50;14.70;;;;;;;0.53;91.52;102291.87;107659;1258;59565;-75
2022/12/01 03:40:55;;;;;;;29.20;15.70;;;;;;;0.44;92.86;102295.88;107665;1267;58868;-76
2022/12/01 03:43:31;;;;;;;28.90;14.90;;;;;;;0.35;92.62;102299.50;107663;1270;71663;-76
2022/12/01 03:46:19;;;;;;;29.80;14.90;;;;;;;0.30;91.79;102296.44;107757;1270;70184;-76
2022/12/01 03:48:49;;;;;;;32.90;15.80;;;;;;;0.09;92.10;102288.13;107704;1265;70366;-78
2022/12/01 03:51:45;;;;;;;29.10;15.90;;;;;;;0.01;92.28;102298.79;107650;1267;72041;-78
2022/12/01 03:54:44;;;;;;;27.50;16.80;;;;;;;-0.02;93.67;102290.73;107687;1261;59290;-75
2022/12/01 03:57:22;;;;;;;30.10;16.20;;;;;;;-0.02;93.26;102288.00;107689;1258;61188;-75
2022/12/01 03:59:52;;;;;;;28.00;15.90;;;;;;;-0.11;93.15;102291.46;107718;1270;72068;-79
2022/12/01 04:02:24;;;;;;;27.60;14.80;;;;;;;-0.12;93.01;102295.58;107703;1262;70201;-78
2022/12/01 04:04:53;;;;;;;27.60;15.50;;;;;;;0.04;97.46;102299.81;107652;1267;70381;-76
2022/12/01 04:07:22;;;;;;;26.70;14.70;;;;;;;-0.05;94.75;102303.26;107508;1263;72758;-78
2022/12/01 04:09:51;;;;;;;28.60;14.90;;;;;;;-0.08;93.83;102301.04;107652;1263;62150;-78
2022/12/01 04:12:28;;;;;;;25.20;14.90;;;;;;;0.01;95.09;102297.92;107755;1267;59660;-77
2022/12/01 04:15:02;;;;;;;26.30;14.70;;;;;;;0.07;95.55;102299.44;107670;1261;71556;-76
2022/12/01 04:17:31;;;;;;;25.70;15.30;;;;;;;0.11;93.36;102297.55;107782;1262;70183;-77
2022/12/01 04:20:00;;;;;;;25.20;14.80;;;;;;;0.21;95.25;102303.34;107824;1258;70135;-77
2022/12/01 04:22:29;;;;;;;26.60;15.20;;;;;;;0.04;92.20;102296.55;107604;1263;74394;-80
2022/12/01 04:24:57;;;;;;;27.10;15.20;;;;;;;0.02;92.98;102295.88;107643;1270;60448;-80
2022/12/01 04:27:28;;;;;;;27.80;15.00;;;;;;;-0.04;90.48;102295.88;107537;1274;60583;-78
2022/12/01 04:29:56;;;;;;;29.00;14.40;;;;;;;-0.12;91.02;102295.23;107614;1264;72521;-74
2022/12/01 04:32:25;;;;;;;26.00;13.80;;;;;;;-0.18;90.74;102294.56;107845;1262;70677;-75
2022/12/01 04:34:54;;;;;;;30.20;15.70;;;;;;;-0.13;93.33;102300.02;107814;1267;68557;-76
2022/12/01 04:37:22;;;;;;;28.40;15.30;;;;;;;-0.06;94.40;102298.64;107676;1267;72707;-73
2022/12/01 04:39:51;;;;;;;26.30;14.10;;;;;;;0.07;93.56;102297.23;107688;1270;60730;-74
2022/12/01 04:42:20;;;;;;;25.20;14.20;;;;;;;-0.01;91.50;102296.56;107673;1263;59149;-75
2022/12/01 04:44:48;;;;;;;31.00;15.70;;;;;;;0.08;92.47;102294.66;107668;1263;74035;-75
2022/12/01 04:47:17;;;;;;;32.70;14.80;;;;;;;0.20;92.56;102298.88;107828;1257;69992;-75
2022/12/01 04:49:46;;;;;;;28.60;14.10;;;;;;;0.09;90.76;102303.20;107710;1261;68583;-73
2022/12/01 04:52:15;;;;;;;32.00;15.40;;;;;;;0.06;90.73;102302.70;107657;1272;71789;-72
2022/12/01 04:54:43;;;;;;;26.60;14.40;;;;;;;-0.05;91.34;102302.22;107655;1264;62009;-73
2022/12/01 04:57:12;;;;;;;28.00;14.90;;;;;;;0.02;92.25;102300.67;107668;1270;59695;-74
2022/12/01 04:59:41;;;;;;;29.80;15.70;;;;;;;-0.12;90.28;102305.16;107661;1270;70786;-73
2022/12/01 05:02:09;;;;;;;31.60;17.60;;;;;;;-0.23;90.73;102305.36;107815;1261;72045;-75
2022/12/01 05:04:40;;;;;;;29.70;15.30;;;;;;;-0.37;91.20;102304.02;107672;1259;70338;-75
2022/12/01 05:07:09;;;;;;;29.40;15.80;;;;;;;-0.36;91.13;102306.40;107654;1261;73359;-73
2022/12/01 05:09:38;;;;;;;30.40;15.20;;;;;;;-0.35;90.84;102310.34;106751;1264;1228864;-74
2022/12/01 05:12:06;;;;;;;29.60;16.00;;;;;;;-0.37;90.40;102312.74;107598;1266;60810;-73
2022/12/01 05:14:35;;;;;;;27.70;15.80;;;;;;;-0.39;90.46;102307.95;107689;1267;70824;-74
2022/12/01 05:17:04;;;;;;;27.00;15.10;;;;;;;-0.36;89.96;102305.04;107840;1258;71293;-73
2022/12/01 05:22:58;;;;;;;30.40;16.30;;;;;;;-0.44;89.97;102305.56;107469;1275;73857;-73
2022/12/01 05:25:36;;;;;;;32.10;16.90;;;;;;;-0.51;90.23;102312.59;107667;1265;59311;-80
2022/12/01 05:28:05;;;;;;;33.70;17.00;;;;;;;-0.50;90.66;102310.88;107579;1267;60346;-72
2022/12/01 05:30:34;;;;;;;29.30;15.80;;;;;;;-0.50;90.34;102320.64;107620;1262;71802;-74
2022/12/01 05:33:02;;;;;;;28.20;15.60;;;;;;;-0.54;89.92;102322.70;107639;1258;72591;-73
2022/12/01 05:35:34;;;;;;;28.30;15.70;;;;;;;-0.63;89.84;102324.58;107607;1270;67943;-74
2022/12/01 05:38:03;;;;;;;31.40;16.90;;;;;;;-0.63;89.39;102326.80;107599;1266;71806;-74
2022/12/01 05:40:36;;;;;;;29.00;16.30;;;;;;;-0.64;88.93;102329.54;107488;1267;59872;-74
2022/12/01 05:43:06;;;;;;;30.60;15.70;;;;;;;-0.65;89.87;102337.75;107614;1264;59549;-75
2022/12/01 05:45:35;;;;;;;29.00;15.40;;;;;;;-0.63;89.78;102339.98;107450;1270;72711;-76
2022/12/01 05:48:20;;;;;;;31.40;17.00;;;;;;;-0.62;89.54;102339.81;107777;1258;71770;-76
2022/12/01 05:50:49;;;;;;;30.80;16.00;;;;;;;-0.68;88.21;102339.30;107508;1263;69179;-78
2022/12/01 05:53:18;;;;;;;27.60;15.00;;;;;;;-0.70;89.70;102339.46;107339;1263;71902;-77
2022/12/01 05:55:53;;;;;;;32.70;16.40;;;;;;;-0.66;89.08;102342.71;107565;1266;61713;-77
2022/12/01 05:58:22;;;;;;;26.20;14.60;;;;;;;-0.63;88.54;102347.52;107461;1272;59841;-76
2022/12/01 06:00:51;;;;;;;29.50;14.90;;;;;;;-0.60;88.37;102348.54;107592;1267;71620;-73
2022/12/01 06:03:20;;;;;;;25.90;14.60;;;;;;;-0.57;88.54;102349.55;107655;1254;69527;-79
2022/12/01 06:05:49;;;;;;;26.30;15.30;;;;;;;-0.63;88.42;102351.44;107700;1264;70083;-80
2022/12/01 06:08:18;;;;;;;29.80;16.60;;;;;;;-0.60;88.55;102351.79;107598;1267;72384;-80
2022/12/01 06:10:47;;;;;;;28.70;15.40;;;;;;;-0.62;88.17;102351.79;107454;1265;59445;-75
2022/12/01 06:13:16;;;;;;;32.50;17.00;;;;;;;-0.66;89.11;102353.84;107401;1267;57984;-76
2022/12/01 06:15:45;;;;;;;32.90;17.10;;;;;;;-0.61;88.71;102356.07;107616;1258;73168;-77
2022/12/01 06:18:13;;;;;;;27.60;15.50;;;;;;;-0.61;88.65;102358.13;107789;1258;70188;-80
2022/12/01 06:20:42;;;;;;;31.90;16.00;;;;;;;-0.60;87.64;102364.80;107566;1264;68625;-75
2022/12/01 06:23:11;;;;;;;26.90;15.00;;;;;;;-0.73;87.54;102355.03;107646;1270;73762;-75
2022/12/01 06:25:40;;;;;;;30.40;16.80;;;;;;;-0.68;86.93;102346.48;107628;1265;62259;-78
2022/12/01 06:28:08;;;;;;;32.40;16.30;;;;;;;-0.72;86.95;102349.39;107563;1261;61720;-79
2022/12/01 06:30:37;;;;;;;30.10;15.10;;;;;;;-0.68;87.09;102350.94;107760;1266;71663;-75
2022/12/01 06:33:06;;;;;;;29.00;15.60;;;;;;;-0.71;86.85;102354.52;107778;1261;69638;-74
2022/12/01 06:35:36;;;;;;;31.00;17.10;;;;;;;-0.75;87.09;102353.84;107490;1269;69972;-77
2022/12/01 06:38:05;;;;;;;28.50;14.30;;;;;;;-0.64;86.82;102347.67;107562;1261;73550;-75
2022/12/01 06:40:33;;;;;;;33.20;16.10;;;;;;;-0.67;85.96;102345.12;107447;1263;60030;-77
2022/12/01 06:43:02;;;;;;;29.40;16.40;;;;;;;-0.70;87.19;102343.73;107545;1272;60936;-78
2022/12/01 06:45:31;;;;;;;29.60;16.30;;;;;;;-0.72;86.29;102334.85;107554;1273;71338;-74
2022/12/01 06:48:00;;;;;;;27.00;15.50;;;;;;;-0.69;85.99;102334.33;107669;1258;71391;-79
2022/12/01 06:50:28;;;;;;;28.50;15.80;;;;;;;-0.80;86.59;102331.60;107509;1263;70380;-80
2022/12/01 06:52:57;;;;;;;28.30;15.80;;;;;;;-0.75;86.34;102334.50;107405;1267;71717;-79
2022/12/01 06:55:26;;;;;;;27.00;15.90;;;;;;;-0.78;85.88;102337.92;107487;1267;62069;-78
2022/12/01 06:57:59;;;;;;;39.50;15.80;;;;;;;-0.67;86.76;102338.43;107381;1259;60470;-81
2022/12/01 07:00:28;;;;;;;;;;;;;;;-0.74;85.90;102340.65;107486;1261;74437;-78
2022/12/01 07:02:57;;;;;;;29.00;15.00;;;;;;;-0.70;86.45;102341.52;107579;1258;70501;-77
2022/12/01 07:05:26;;;;;;;30.20;15.90;;;;;;;-0.76;85.94;102336.38;107612;1258;69339;-78
2022/12/01 07:07:55;;;;;;;28.80;15.50;;;;;;;-0.74;86.39;102342.72;107577;1264;72989;-77
2022/12/01 07:10:27;;;;;;;28.00;15.10;;;;;;;-0.67;86.18;102347.52;107631;1267;60765;-78
2022/12/01 07:12:56;;;;;;;24.90;15.30;;;;;;;-0.67;85.77;102349.23;107507;1264;58999;-77
2022/12/01 07:15:25;;;;;;;26.50;14.50;;;;;;;-0.73;85.88;102356.06;107788;1270;73426;-76
2022/12/01 07:17:53;;;;;;;28.90;15.10;;;;;;;-0.70;86.00;102357.25;107749;1262;71000;-76
2022/12/01 07:20:22;;;;;;;28.40;15.00;;;;;;;-0.70;85.69;102357.95;107757;1260;67776;-74
2022/12/01 07:22:53;;;;;;;73.10;33.60;;;;;;;-0.68;85.63;102353.15;107880;1264;72707;-86
2022/12/01 07:25:22;;;;;;;29.70;16.30;;;;;;;-0.65;85.59;102350.92;107650;1264;60194;-79
2022/12/01 07:27:53;;;;;;;30.20;15.90;;;;;;;-0.72;85.70;102349.90;107534;1265;59919;-72
2022/12/01 07:30:22;;;;;;;28.50;14.70;;;;;;;-0.73;85.76;102346.65;107863;1264;71679;-79
2022/12/01 07:32:55;;;;;;;29.20;17.40;;;;;;;-0.65;86.78;102346.65;107780;1257;72140;-75
2022/12/01 07:35:24;;;;;;;24.60;15.40;;;;;;;-0.62;85.80;102344.95;107632;1263;68159;-80
2022/12/01 07:37:56;;;;;;;35.40;20.20;;;;;;;-0.66;85.51;102344.08;107500;1257;71973;-80
2022/12/01 07:40:25;;;;;;;27.00;14.70;;;;;;;-0.55;85.68;102346.31;107637;1274;58073;-81
2022/12/01 07:42:54;;;;;;;24.20;14.90;;;;;;;-0.59;85.13;102339.64;107763;1263;59606;-80
2022/12/01 07:45:23;;;;;;;27.30;15.20;;;;;;;-0.66;85.29;102330.73;107610;1264;73551;-79
2022/12/01 07:47:53;;;;;;;31.60;14.40;;;;;;;-0.63;85.31;102330.39;107783;1265;68942;-81
2022/12/01 07:50:21;;;;;;;26.10;15.90;;;;;;;-0.57;85.05;102330.05;107668;1267;70835;-81
2022/12/01 07:52:50;;;;;;;34.30;19.30;;;;;;;-0.66;84.75;102326.29;107722;1267;71363;-80
2022/12/01 07:55:19;;;;;;;27.40;16.20;;;;;;;-0.64;85.34;102329.37;107654;1270;58186;-79
2022/12/01 07:57:48;;;;;;;28.30;13.70;;;;;;;-0.57;85.96;102334.85;107824;1265;59624;-82
2022/12/01 08:00:17;;;;;;;25.00;14.80;;;;;;;-0.56;84.47;102341.52;107697;1260;72229;-82
2022/12/01 08:02:49;;;;;;;51.80;23.90;;;;;;;-0.69;85.09;102345.11;107946;1261;69419;-81
2022/12/01 08:05:18;;;;;;;34.60;18.60;;;;;;;-0.70;86.46;102351.10;107759;1262;70390;-81
2022/12/01 08:07:46;;;;;;;49.10;23.70;;;;;;;-0.68;85.34;102348.36;107726;1262;74030;-79
2022/12/01 08:10:15;;;;;;;116.20;48.20;;;;;;;-0.60;85.53;102351.96;107829;1267;59632;-81
2022/12/01 08:12:45;;;;;;;27.60;14.80;;;;;;;-0.63;85.56;102352.98;107782;1262;59103;-78
2022/12/01 08:15:17;;;;;;;30.10;15.40;;;;;;;-0.49;84.42;102344.77;107867;1265;74065;-80
2022/12/01 08:17:46;;;;;;;26.40;15.90;;;;;;;-0.66;84.51;102333.30;107961;1262;70462;-82
2022/12/01 08:20:15;;;;;;;25.70;14.00;;;;;;;-0.64;84.79;102329.02;107585;1270;67875;-80
2022/12/01 08:22:51;;;;;;;25.30;14.80;;;;;;;-0.61;84.02;102330.22;107840;1267;70480;-81
2022/12/01 08:25:19;;;;;;;28.10;15.10;;;;;;;-0.68;84.33;102325.95;107728;1263;59539;-80
2022/12/01 08:27:48;;;;;;;25.70;15.30;;;;;;;-0.67;84.68;102330.40;107944;1267;59088;-80
2022/12/01 08:30:17;;;;;;;27.30;14.30;;;;;;;-0.62;84.31;102325.09;107666;1264;71567;-79
2022/12/01 08:32:46;;;;;;;33.60;17.90;;;;;;;-0.53;84.49;102326.63;107779;1258;70269;-79
2022/12/01 08:35:15;;;;;;;38.10;21.40;;;;;;;-0.53;84.43;102323.20;107590;1273;69397;-78
2022/12/01 08:37:44;;;;;;;37.80;19.50;;;;;;;-0.53;84.27;102314.99;107754;1266;72757;-78
2022/12/01 08:40:13;;;;;;;40.00;16.00;;;;;;;-0.55;83.87;102309.34;107602;1273;62763;-77
2022/12/01 08:43:20;;;;;;;22.40;13.80;;;;;;;-0.57;83.93;102307.64;107690;1264;59855;-84
2022/12/01 08:46:13;;;;;;;22.70;13.60;;;;;;;-0.63;83.71;102302.16;107122;1280;71524;-80
2022/12/01 08:48:43;;;;;;;27.40;15.90;;;;;;;-0.59;84.36;102305.74;107561;1264;71460;-82
2022/12/01 08:51:15;;;;;;;26.10;16.30;;;;;;;-0.54;84.64;102309.35;107494;1270;69866;-80
2022/12/01 08:53:47;;;;;;;56.30;26.50;;;;;;;-0.45;83.77;102307.11;107493;1269;73026;-80
2022/12/01 08:56:19;;;;;;;26.80;16.40;;;;;;;-0.44;83.48;102305.56;107496;1264;60216;-79
2022/12/01 08:58:49;;;;;;;35.80;16.30;;;;;;;-0.51;83.86;102308.33;107419;1276;59581;-81
2022/12/01 09:01:19;;;;;;;27.80;15.20;;;;;;;-0.44;84.58;102307.11;107507;1270;72497;-80
2022/12/01 09:04:03;;;;;;;38.80;20.00;;;;;;;-0.39;84.58;102308.48;107437;1267;69559;-80
2022/12/01 09:06:44;;;;;;;23.70;14.60;;;;;;;-0.36;84.41;102312.91;107515;1267;68769;-79
2022/12/01 09:09:18;;;;;;;28.60;17.00;;;;;;;-0.24;82.81;102313.08;107213;1275;71961;-78
2022/12/01 09:11:48;;;;;;;31.60;16.30;;;;;;;-0.31;83.25;102307.77;107526;1262;61601;-79
2022/12/01 09:14:18;;;;;;;26.70;14.50;;;;;;;-0.25;82.92;102306.39;107284;1271;59764;-78
2022/12/01 09:16:49;;;;;;;29.50;16.40;;;;;;;-0.27;82.80;102304.84;107445;1265;72363;-79
2022/12/01 09:19:19;;;;;;;27.90;13.70;;;;;;;-0.29;83.09;102298.52;107685;1262;71268;-80
2022/12/01 09:21:52;;;;;;;27.80;15.90;;;;;;;-0.29;82.40;102298.02;107577;1260;69184;-78
2022/12/01 09:24:21;;;;;;;33.90;18.30;;;;;;;-0.48;83.00;102285.39;107674;1266;73289;-79
2022/12/01 09:26:55;;;;;;;28.00;16.70;;;;;;;-0.39;83.55;102281.26;107527;1266;58401;-80
2022/12/01 09:29:24;;;;;;;28.90;15.80;;;;;;;-0.41;83.88;102282.11;107619;1263;60284;-78
2022/12/01 09:31:57;;;;;;;31.20;17.10;;;;;;;-0.34;83.60;102286.20;107786;1270;71534;-79
2022/12/01 09:34:27;;;;;;;32.60;17.40;;;;;;;-0.33;83.60;102283.81;107836;1262;69805;-79
2022/12/01 09:36:57;;;;;;;31.50;16.90;;;;;;;-0.37;83.76;102289.30;107600;1271;68562;-80
2022/12/01 09:39:26;;;;;;;28.60;16.00;;;;;;;-0.32;83.11;102290.82;107616;1270;74192;-80
2022/12/01 09:42:11;;;;;;;25.70;13.20;;;;;;;-0.36;83.01;102290.66;107675;1270;59124;-80
2022/12/01 09:44:52;;;;;;;27.60;16.10;;;;;;;-0.37;83.02;102291.52;107630;1267;59615;-78
2022/12/01 09:47:35;;;;;;;29.40;16.90;;;;;;;-0.47;83.76;102291.88;107562;1266;73145;-79
2022/12/01 09:50:26;;;;;;;27.00;14.80;;;;;;;-0.46;84.81;102287.77;107771;1261;70573;-77
2022/12/01 09:53:18;;;;;;;25.20;15.40;;;;;;;-0.38;84.12;102284.51;107589;1267;70490;-79
2022/12/01 09:55:49;;;;;;;28.70;16.40;;;;;;;-0.39;84.06;102284.52;107580;1267;70605;-78
2022/12/01 09:58:24;;;;;;;34.40;20.80;;;;;;;-0.39;83.97;102281.25;107501;1270;59579;-78
2022/12/01 10:00:53;;;;;;;27.60;15.70;;;;;;;-0.39;84.31;102278.34;107423;1270;62020;-78
2022/12/01 10:03:45;;;;;;;30.10;16.60;;;;;;;-0.25;83.67;102269.06;107365;1273;70319;-78
2022/12/01 10:06:19;;;;;;;30.70;16.40;;;;;;;-0.42;83.23;102267.73;107644;1267;72028;-76
2022/12/01 10:09:33;;;;;;;27.90;15.50;;;;;;;-0.47;83.89;102262.61;107665;1267;70070;-81
2022/12/01 10:12:26;;;;;;;28.60;15.20;;;;;;;-0.47;84.26;102264.50;107378;1266;71896;-76
2022/12/01 10:15:17;;;;;;;29.50;17.10;;;;;;;-0.31;83.75;102258.98;107520;1267;59586;-85
2022/12/01 10:18:31;;;;;;;28.80;15.80;;;;;;;-0.25;83.01;102262.20;107209;1276;61223;-75
2022/12/01 10:21:29;;;;;;;27.80;16.60;;;;;;;-0.21;82.92;102256.21;107400;1270;73986;-78
2022/12/01 10:24:30;;;;;;;26.80;15.50;;;;;;;-0.16;82.76;102254.82;107533;1265;70704;-80
2022/12/01 10:27:25;;;;;;;30.80;16.80;;;;;;;0.02;82.53;102253.39;107330;1265;69558;-78
2022/12/01 10:30:17;;;;;;;33.20;17.70;;;;;;;-0.24;82.55;102251.77;107095;1274;72542;-80
2022/12/01 10:32:53;;;;;;;28.80;15.90;;;;;;;-0.22;83.87;102251.09;107357;1276;62139;-80
2022/12/01 10:35:28;;;;;;;25.90;14.60;;;;;;;-0.20;82.83;102247.14;107571;1264;61678;-80
2022/12/01 10:38:01;;;;;;;30.80;16.00;;;;;;;-0.19;83.24;102247.99;107492;1271;72465;-82
2022/12/01 10:40:54;;;;;;;32.40;15.50;;;;;;;-0.16;82.77;102246.42;107472;1267;69998;-82
2022/12/01 10:43:40;;;;;;;25.00;14.60;;;;;;;-0.26;82.75;102243.38;107405;1269;70966;-80
2022/12/01 10:46:42;;;;;;;33.10;15.30;;;;;;;-0.28;82.83;102238.94;107202;1270;73392;-82
2022/12/01 10:49:14;;;;;;;33.00;16.20;;;;;;;-0.22;83.20;102233.27;106224;1285;61650;-77
2022/12/01 10:51:51;;;;;;;29.80;17.60;;;;;;;-0.14;83.24;102233.24;106120;1279;60588;-77
2022/12/01 10:54:32;;;;;;;32.10;17.00;;;;;;;-0.21;83.66;102235.83;106258;1289;71372;-77
2022/12/01 10:57:02;;;;;;;33.70;16.60;;;;;;;-0.11;83.43;102234.59;106206;1284;72069;-78
2022/12/01 10:59:37;;;;;;;28.50;17.10;;;;;;;-0.14;82.94;102237.34;106084;1288;67788;-78
2022/12/01 11:02:19;;;;;;;29.30;16.00;;;;;;;-0.20;82.95;102235.66;106325;1288;73856;-78
2022/12/01 11:04:56;;;;;;;27.30;16.20;;;;;;;-0.25;82.50;102234.48;106305;1281;59514;-78
2022/12/01 11:07:43;;;;;;;26.60;15.90;;;;;;;-0.35;82.76;102233.64;106283;1283;58784;-78
2022/12/01 11:10:23;;;;;;;29.50;16.10;;;;;;;-0.41;82.70;102227.84;106205;1289;72720;-80
2022/12/01 11:13:34;;;;;;;27.80;14.30;;;;;;;-0.54;83.45;102228.73;106238;1277;71024;-81
2022/12/01 11:16:05;;;;;;;28.40;16.80;;;;;;;-0.54;84.03;102227.02;106289;1286;71072;-77
2022/12/01 11:18:37;;;;;;;28.30;17.10;;;;;;;-0.48;84.59;102224.95;106189;1282;72925;-74
2022/12/01 11:21:11;;;;;;;27.80;15.80;;;;;;;-0.42;84.95;102225.11;106266;1286;60043;-73
2022/12/01 11:23:52;;;;;;;25.30;15.20;;;;;;;-0.40;83.74;102221.85;106279;1284;59286;-77
2022/12/01 11:26:23;;;;;;;31.00;15.20;;;;;;;-0.34;83.12;102215.49;106204;1277;73582;-76
2022/12/01 11:29:31;;;;;;;28.60;15.10;;;;;;;-0.33;82.92;102216.86;106345;1277;71183;-76
2022/12/01 11:32:22;;;;;;;30.60;16.30;;;;;;;-0.26;83.05;102215.30;106139;1285;69710;-76
2022/12/01 11:35:01;;;;;;;29.90;15.50;;;;;;;-0.27;82.95;102214.79;106195;1285;72771;-75
2022/12/01 11:37:37;;;;;;;27.30;15.40;;;;;;;-0.18;82.81;102219.37;106352;1286;60716;-72
2022/12/01 11:40:35;;;;;;;28.90;15.70;;;;;;;-0.25;82.55;102214.95;106290;1289;59612;-72
2022/12/01 11:43:06;;;;;;;28.70;14.60;;;;;;;-0.30;82.94;102209.84;106409;1277;74171;-78
2022/12/01 11:45:43;;;;;;;27.30;14.70;;;;;;;-0.27;82.73;102208.63;106389;1291;70878;-78